sensor_id;sensor_type;location;lat;lon;timestamp;temperature;humidity
12520;DHT22;6325;49.540;8.364;2022-07-23T05:14:12;21.10;99.90
12520;DHT22;6325;49.540;8.364;2022-07-23T05:17:06;21.00;99.90
12520;DHT22;6325;49.540;8.364;2022-07-23T05:19:35;21.30;99.90
12520;DHT22;6325;49.540;8.364;2022-07-23T05:22:03;21.10;99.90
12520;DHT22;6325;49.540;8.364;2022-07-23T05:28:02;21.00;99.90
12520;DHT22;6325;49.540;8.364;2022-07-23T05:30:57;20.80;99.90
12520;DHT22;6325;49.540;8.364;2022-07-23T05:33:26;21.10;99.90
12520;DHT22;6325;49.540;8.364;2022-07-23T05:36:00;21.20;99.90
12520;DHT22;6325;49.540;8.364;2022-07-23T05:38:27;21.00;99.90
12520;DHT22;6325;49.540;8.364;2022-07-23T05:40:56;21.00;99.90
12520;DHT22;6325;49.540;8.364;2022-07-23T05:43:24;21.00;99.90
12520;DHT22;6325;49.540;8.364;2022-07-23T05:45:53;21.50;99.90
12520;DHT22;6325;49.540;8.364;2022-07-23T05:48:21;21.00;99.90
12520;DHT22;6325;49.540;8.364;2022-07-23T05:50:52;20.90;99.90
12520;DHT22;6325;49.540;8.364;2022-07-23T05:53:20;21.00;99.90
12520;DHT22;6325;49.540;8.364;2022-07-23T05:55:47;21.00;99.90
12520;DHT22;6325;49.540;8.364;2022-07-23T05:58:14;20.90;99.90
12520;DHT22;6325;49.540;8.364;2022-07-23T06:00:41;21.10;99.90
12520;DHT22;6325;49.540;8.364;2022-07-23T06:03:26;21.10;99.90
12520;DHT22;6325;49.540;8.364;2022-07-23T06:06:27;21.10;99.90
12520;DHT22;6325;49.540;8.364;2022-07-23T06:09:10;21.10;99.90
12520;DHT22;6325;49.540;8.364;2022-07-23T06:11:39;21.30;99.90
12520;DHT22;6325;49.540;8.364;2022-07-23T06:23:36;21.40;99.90
12520;DHT22;6325;49.540;8.364;2022-07-23T06:56:42;21.90;99.90
12520;DHT22;6325;49.540;8.364;2022-07-23T06:59:09;22.00;99.90
12520;DHT22;6325;49.540;8.364;2022-07-23T07:01:36;21.70;99.90
12520;DHT22;6325;49.540;8.364;2022-07-23T07:04:03;22.00;99.90
12520;DHT22;6325;49.540;8.364;2022-07-23T07:06:30;22.00;99.90
12520;DHT22;6325;49.540;8.364;2022-07-23T07:08:57;22.40;99.90
12520;DHT22;6325;49.540;8.364;2022-07-23T07:11:23;21.90;99.90
12520;DHT22;6325;49.540;8.364;2022-07-23T07:13:52;22.00;99.90
12520;DHT22;6325;49.540;8.364;2022-07-23T07:16:19;22.50;99.90
12520;DHT22;6325;49.540;8.364;2022-07-23T07:18:45;22.10;99.90
12520;DHT22;6325;49.540;8.364;2022-07-23T07:21:12;22.20;99.90
12520;DHT22;6325;49.540;8.364;2022-07-23T07:23:39;22.20;99.90
12520;DHT22;6325;49.540;8.364;2022-07-23T07:26:06;22.40;99.90
12520;DHT22;6325;49.540;8.364;2022-07-23T07:28:33;22.10;99.90
12520;DHT22;6325;49.540;8.364;2022-07-23T07:31:01;21.70;99.90
12520;DHT22;6325;49.540;8.364;2022-07-23T07:33:28;22.40;99.90
12520;DHT22;6325;49.540;8.364;2022-07-23T07:35:55;22.20;99.90
12520;DHT22;6325;49.540;8.364;2022-07-23T07:38:22;22.20;99.90
12520;DHT22;6325;49.540;8.364;2022-07-23T07:40:49;22.80;99.90
12520;DHT22;6325;49.540;8.364;2022-07-23T07:43:16;22.60;99.90
12520;DHT22;6325;49.540;8.364;2022-07-23T07:45:42;22.80;99.90
12520;DHT22;6325;49.540;8.364;2022-07-23T07:48:11;23.00;99.90
12520;DHT22;6325;49.540;8.364;2022-07-23T07:50:37;22.70;99.90
12520;DHT22;6325;49.540;8.364;2022-07-23T07:53:04;23.30;99.90
12520;DHT22;6325;49.540;8.364;2022-07-23T07:55:31;22.70;99.90
12520;DHT22;6325;49.540;8.364;2022-07-23T07:57:59;22.30;99.90
12520;DHT22;6325;49.540;8.364;2022-07-23T08:00:26;22.70;99.90
12520;DHT22;6325;49.540;8.364;2022-07-23T08:02:54;22.40;99.90
12520;DHT22;6325;49.540;8.364;2022-07-23T08:05:24;22.50;99.90
12520;DHT22;6325;49.540;8.364;2022-07-23T08:07:51;22.90;99.90
12520;DHT22;6325;49.540;8.364;2022-07-23T08:10:19;23.00;99.90
12520;DHT22;6325;49.540;8.364;2022-07-23T08:12:48;23.40;99.90
12520;DHT22;6325;49.540;8.364;2022-07-23T08:15:15;22.70;99.90
12520;DHT22;6325;49.540;8.364;2022-07-23T08:17:44;23.70;99.90
12520;DHT22;6325;49.540;8.364;2022-07-23T08:20:13;23.40;99.90
12520;DHT22;6325;49.540;8.364;2022-07-23T08:22:48;23.10;99.90
12520;DHT22;6325;49.540;8.364;2022-07-23T08:25:16;23.50;99.90
12520;DHT22;6325;49.540;8.364;2022-07-23T08:27:46;23.50;99.90
12520;DHT22;6325;49.540;8.364;2022-07-23T08:30:13;23.50;99.90
12520;DHT22;6325;49.540;8.364;2022-07-23T08:32:50;23.70;99.90
12520;DHT22;6325;49.540;8.364;2022-07-23T08:35:17;23.60;99.90
12520;DHT22;6325;49.540;8.364;2022-07-23T08:37:44;24.00;99.90
12520;DHT22;6325;49.540;8.364;2022-07-23T08:40:13;23.80;99.90
12520;DHT22;6325;49.540;8.364;2022-07-23T08:42:39;23.90;99.90
12520;DHT22;6325;49.540;8.364;2022-07-23T08:45:08;24.20;99.90
12520;DHT22;6325;49.540;8.364;2022-07-23T08:47:37;24.00;99.90
12520;DHT22;6325;49.540;8.364;2022-07-23T08:50:05;23.70;99.90
12520;DHT22;6325;49.540;8.364;2022-07-23T08:52:34;24.20;99.90
12520;DHT22;6325;49.540;8.364;2022-07-23T08:55:02;24.40;99.90
12520;DHT22;6325;49.540;8.364;2022-07-23T08:57:30;24.30;99.90
12520;DHT22;6325;49.540;8.364;2022-07-23T08:59:57;24.10;99.90
12520;DHT22;6325;49.540;8.364;2022-07-23T09:02:24;24.40;99.90
12520;DHT22;6325;49.540;8.364;2022-07-23T09:04:51;24.40;99.90
12520;DHT22;6325;49.540;8.364;2022-07-23T09:07:18;24.70;99.90
12520;DHT22;6325;49.540;8.364;2022-07-23T09:09:44;24.80;99.90
12520;DHT22;6325;49.540;8.364;2022-07-23T09:12:11;24.60;99.90
12520;DHT22;6325;49.540;8.364;2022-07-23T09:14:42;25.00;99.90
12520;DHT22;6325;49.540;8.364;2022-07-23T09:17:10;25.30;99.90
12520;DHT22;6325;49.540;8.364;2022-07-23T09:19:37;24.90;99.90
12520;DHT22;6325;49.540;8.364;2022-07-23T09:22:21;25.10;99.90
12520;DHT22;6325;49.540;8.364;2022-07-23T09:25:09;25.10;99.90
12520;DHT22;6325;49.540;8.364;2022-07-23T09:27:49;25.20;99.90
12520;DHT22;6325;49.540;8.364;2022-07-23T09:30:17;25.20;99.90
12520;DHT22;6325;49.540;8.364;2022-07-23T09:32:44;24.70;99.90
12520;DHT22;6325;49.540;8.364;2022-07-23T09:35:11;25.60;99.90
12520;DHT22;6325;49.540;8.364;2022-07-23T09:37:37;25.70;99.90
12520;DHT22;6325;49.540;8.364;2022-07-23T09:40:06;25.40;99.90
12520;DHT22;6325;49.540;8.364;2022-07-23T09:42:34;26.00;99.90
12520;DHT22;6325;49.540;8.364;2022-07-23T09:45:01;26.20;99.90
12520;DHT22;6325;49.540;8.364;2022-07-23T09:47:31;25.80;99.90
12520;DHT22;6325;49.540;8.364;2022-07-23T09:50:00;25.90;99.90
12520;DHT22;6325;49.540;8.364;2022-07-23T09:52:30;26.10;99.90
12520;DHT22;6325;49.540;8.364;2022-07-23T09:54:59;26.30;99.90
12520;DHT22;6325;49.540;8.364;2022-07-23T09:57:27;26.00;99.90
12520;DHT22;6325;49.540;8.364;2022-07-23T09:59:57;25.90;99.90
12520;DHT22;6325;49.540;8.364;2022-07-23T10:02:24;26.30;99.90
12520;DHT22;6325;49.540;8.364;2022-07-23T10:04:53;26.30;99.90
12520;DHT22;6325;49.540;8.364;2022-07-23T10:07:22;26.40;99.90
12520;DHT22;6325;49.540;8.364;2022-07-23T10:09:50;26.20;99.90
12520;DHT22;6325;49.540;8.364;2022-07-23T10:12:19;26.60;99.90
12520;DHT22;6325;49.540;8.364;2022-07-23T10:15:00;26.60;99.90
12520;DHT22;6325;49.540;8.364;2022-07-23T10:17:27;26.80;99.90
12520;DHT22;6325;49.540;8.364;2022-07-23T10:19:56;26.50;99.90
12520;DHT22;6325;49.540;8.364;2022-07-23T10:22:24;27.00;99.90
12520;DHT22;6325;49.540;8.364;2022-07-23T10:25:04;26.80;99.90
12520;DHT22;6325;49.540;8.364;2022-07-23T10:27:51;27.10;99.90
12520;DHT22;6325;49.540;8.364;2022-07-23T10:30:28;26.90;99.90
12520;DHT22;6325;49.540;8.364;2022-07-23T10:33:09;27.30;99.90
12520;DHT22;6325;49.540;8.364;2022-07-23T10:35:44;27.40;99.90
12520;DHT22;6325;49.540;8.364;2022-07-23T10:38:21;26.80;99.90
12520;DHT22;6325;49.540;8.364;2022-07-23T10:40:56;27.80;99.90
12520;DHT22;6325;49.540;8.364;2022-07-23T10:43:23;27.50;99.90
12520;DHT22;6325;49.540;8.364;2022-07-23T10:45:50;27.50;99.90
12520;DHT22;6325;49.540;8.364;2022-07-23T10:48:19;27.60;99.90
12520;DHT22;6325;49.540;8.364;2022-07-23T10:51:08;27.80;99.90
12520;DHT22;6325;49.540;8.364;2022-07-23T10:53:53;27.80;99.90
12520;DHT22;6325;49.540;8.364;2022-07-23T10:57:04;27.40;99.90
12520;DHT22;6325;49.540;8.364;2022-07-23T10:59:32;27.90;99.90
12520;DHT22;6325;49.540;8.364;2022-07-23T11:02:22;27.60;99.90
12520;DHT22;6325;49.540;8.364;2022-07-23T11:04:51;27.70;99.90
12520;DHT22;6325;49.540;8.364;2022-07-23T11:07:19;27.80;99.90
12520;DHT22;6325;49.540;8.364;2022-07-23T11:09:46;28.20;99.90
12520;DHT22;6325;49.540;8.364;2022-07-23T11:12:33;28.70;99.90
12520;DHT22;6325;49.540;8.364;2022-07-23T11:15:02;28.40;99.90
12520;DHT22;6325;49.540;8.364;2022-07-23T11:17:30;28.60;99.90
12520;DHT22;6325;49.540;8.364;2022-07-23T11:20:18;28.50;99.90
12520;DHT22;6325;49.540;8.364;2022-07-23T11:22:55;28.50;99.90
12520;DHT22;6325;49.540;8.364;2022-07-23T11:25:32;28.10;99.90
12520;DHT22;6325;49.540;8.364;2022-07-23T11:28:09;28.40;99.90
12520;DHT22;6325;49.540;8.364;2022-07-23T11:30:42;28.30;99.90
12520;DHT22;6325;49.540;8.364;2022-07-23T11:33:21;28.50;99.90
12520;DHT22;6325;49.540;8.364;2022-07-23T11:35:59;28.30;99.90
12520;DHT22;6325;49.540;8.364;2022-07-23T11:38:31;28.10;99.90
12520;DHT22;6325;49.540;8.364;2022-07-23T11:40:58;28.50;99.90
12520;DHT22;6325;49.540;8.364;2022-07-23T11:43:25;28.20;99.90
12520;DHT22;6325;49.540;8.364;2022-07-23T11:45:56;28.40;99.90
12520;DHT22;6325;49.540;8.364;2022-07-23T11:48:25;28.00;99.90
12520;DHT22;6325;49.540;8.364;2022-07-23T11:50:54;28.00;99.90
12520;DHT22;6325;49.540;8.364;2022-07-23T11:53:24;27.80;99.90
12520;DHT22;6325;49.540;8.364;2022-07-23T11:55:53;27.90;99.90
12520;DHT22;6325;49.540;8.364;2022-07-23T11:58:20;27.80;99.90
12520;DHT22;6325;49.540;8.364;2022-07-23T12:00:47;27.60;99.90
12520;DHT22;6325;49.540;8.364;2022-07-23T12:03:16;27.60;99.90
12520;DHT22;6325;49.540;8.364;2022-07-23T12:05:43;27.40;99.90
12520;DHT22;6325;49.540;8.364;2022-07-23T12:08:10;27.40;99.90
12520;DHT22;6325;49.540;8.364;2022-07-23T12:10:39;27.30;99.90
12520;DHT22;6325;49.540;8.364;2022-07-23T12:13:09;27.30;99.90
12520;DHT22;6325;49.540;8.364;2022-07-23T12:15:39;27.30;99.90
12520;DHT22;6325;49.540;8.364;2022-07-23T12:18:08;27.30;99.90
12520;DHT22;6325;49.540;8.364;2022-07-23T12:20:37;27.30;99.90
12520;DHT22;6325;49.540;8.364;2022-07-23T12:23:06;27.50;99.90
12520;DHT22;6325;49.540;8.364;2022-07-23T12:25:34;27.30;99.90
12520;DHT22;6325;49.540;8.364;2022-07-23T12:28:04;27.60;99.90
12520;DHT22;6325;49.540;8.364;2022-07-23T12:30:34;27.70;99.90
12520;DHT22;6325;49.540;8.364;2022-07-23T12:33:04;27.80;99.90
12520;DHT22;6325;49.540;8.364;2022-07-23T12:35:35;28.00;99.90
12520;DHT22;6325;49.540;8.364;2022-07-23T12:38:04;28.60;99.90
12520;DHT22;6325;49.540;8.364;2022-07-23T12:40:33;28.80;99.90
12520;DHT22;6325;49.540;8.364;2022-07-23T12:43:02;28.90;99.90
12520;DHT22;6325;49.540;8.364;2022-07-23T12:45:44;29.20;99.90
12520;DHT22;6325;49.540;8.364;2022-07-23T12:48:17;28.60;99.90
12520;DHT22;6325;49.540;8.364;2022-07-23T12:50:49;28.90;99.90
12520;DHT22;6325;49.540;8.364;2022-07-23T12:53:17;28.40;99.90
12520;DHT22;6325;49.540;8.364;2022-07-23T12:55:45;29.00;99.90
12520;DHT22;6325;49.540;8.364;2022-07-23T12:58:14;29.60;99.90
12520;DHT22;6325;49.540;8.364;2022-07-23T13:00:55;29.70;99.90
12520;DHT22;6325;49.540;8.364;2022-07-23T13:03:24;30.00;99.90
12520;DHT22;6325;49.540;8.364;2022-07-23T13:05:51;29.60;99.90
12520;DHT22;6325;49.540;8.364;2022-07-23T13:08:18;29.80;99.90
12520;DHT22;6325;49.540;8.364;2022-07-23T13:10:45;29.50;99.90
12520;DHT22;6325;49.540;8.364;2022-07-23T13:13:14;30.00;99.90
12520;DHT22;6325;49.540;8.364;2022-07-23T13:15:41;29.90;99.90
12520;DHT22;6325;49.540;8.364;2022-07-23T13:18:09;30.00;99.90
12520;DHT22;6325;49.540;8.364;2022-07-23T13:20:36;29.90;99.90
12520;DHT22;6325;49.540;8.364;2022-07-23T13:23:04;29.60;99.90
12520;DHT22;6325;49.540;8.364;2022-07-23T13:25:31;29.50;99.90
12520;DHT22;6325;49.540;8.364;2022-07-23T13:27:57;30.00;99.90
12520;DHT22;6325;49.540;8.364;2022-07-23T13:30:24;29.10;99.90
12520;DHT22;6325;49.540;8.364;2022-07-23T13:32:51;29.50;99.90
12520;DHT22;6325;49.540;8.364;2022-07-23T13:35:19;29.20;99.90
12520;DHT22;6325;49.540;8.364;2022-07-23T13:37:47;29.40;99.90
12520;DHT22;6325;49.540;8.364;2022-07-23T13:40:13;28.80;99.90
12520;DHT22;6325;49.540;8.364;2022-07-23T13:42:40;28.20;99.90
12520;DHT22;6325;49.540;8.364;2022-07-23T13:45:08;28.60;99.90
12520;DHT22;6325;49.540;8.364;2022-07-23T13:47:35;28.80;99.90
12520;DHT22;6325;49.540;8.364;2022-07-23T13:50:02;29.20;99.90
12520;DHT22;6325;49.540;8.364;2022-07-23T13:52:30;29.40;99.90
12520;DHT22;6325;49.540;8.364;2022-07-23T13:54:59;29.70;99.90
12520;DHT22;6325;49.540;8.364;2022-07-23T13:57:25;29.10;99.90
12520;DHT22;6325;49.540;8.364;2022-07-23T13:59:52;29.00;99.90
12520;DHT22;6325;49.540;8.364;2022-07-23T14:02:19;29.30;99.90
12520;DHT22;6325;49.540;8.364;2022-07-23T14:04:46;29.80;99.90
12520;DHT22;6325;49.540;8.364;2022-07-23T14:07:13;29.80;99.90
12520;DHT22;6325;49.540;8.364;2022-07-23T14:09:41;30.10;99.90
12520;DHT22;6325;49.540;8.364;2022-07-23T14:12:09;30.90;99.90
12520;DHT22;6325;49.540;8.364;2022-07-23T14:14:36;30.40;99.90
12520;DHT22;6325;49.540;8.364;2022-07-23T14:17:03;31.20;99.90
12520;DHT22;6325;49.540;8.364;2022-07-23T14:19:30;31.40;99.90
12520;DHT22;6325;49.540;8.364;2022-07-23T14:21:57;31.50;99.90
12520;DHT22;6325;49.540;8.364;2022-07-23T14:24:23;31.50;99.90
12520;DHT22;6325;49.540;8.364;2022-07-23T14:26:52;31.00;99.90
12520;DHT22;6325;49.540;8.364;2022-07-23T14:29:19;32.10;99.90
12520;DHT22;6325;49.540;8.364;2022-07-23T14:31:45;32.10;99.90
12520;DHT22;6325;49.540;8.364;2022-07-23T14:34:12;32.20;98.60
12520;DHT22;6325;49.540;8.364;2022-07-23T14:36:40;32.50;97.90
12520;DHT22;6325;49.540;8.364;2022-07-23T14:39:07;32.60;99.90
12520;DHT22;6325;49.540;8.364;2022-07-23T14:41:34;32.80;97.60
12520;DHT22;6325;49.540;8.364;2022-07-23T14:44:03;32.80;98.00
12520;DHT22;6325;49.540;8.364;2022-07-23T14:46:30;33.10;97.40
12520;DHT22;6325;49.540;8.364;2022-07-23T14:48:57;33.40;95.30
12520;DHT22;6325;49.540;8.364;2022-07-23T14:51:24;33.50;93.20
12520;DHT22;6325;49.540;8.364;2022-07-23T14:53:51;33.40;92.70
12520;DHT22;6325;49.540;8.364;2022-07-23T14:56:18;33.20;92.40
12520;DHT22;6325;49.540;8.364;2022-07-23T14:58:45;32.60;94.10
12520;DHT22;6325;49.540;8.364;2022-07-23T15:01:14;32.50;95.80
12520;DHT22;6325;49.540;8.364;2022-07-23T15:03:40;31.60;96.80
12520;DHT22;6325;49.540;8.364;2022-07-23T15:06:07;31.10;96.40
12520;DHT22;6325;49.540;8.364;2022-07-23T15:08:34;30.50;97.60
12520;DHT22;6325;49.540;8.364;2022-07-23T15:11:01;30.40;97.50
12520;DHT22;6325;49.540;8.364;2022-07-23T15:13:28;30.70;98.60
12520;DHT22;6325;49.540;8.364;2022-07-23T15:15:54;31.00;96.80
12520;DHT22;6325;49.540;8.364;2022-07-23T15:18:23;30.70;97.80
12520;DHT22;6325;49.540;8.364;2022-07-23T15:20:50;30.40;96.90
12520;DHT22;6325;49.540;8.364;2022-07-23T15:23:16;30.60;97.70
12520;DHT22;6325;49.540;8.364;2022-07-23T15:25:43;29.70;98.40
12520;DHT22;6325;49.540;8.364;2022-07-23T15:28:10;30.00;97.20
12520;DHT22;6325;49.540;8.364;2022-07-23T15:30:37;29.90;97.70
12520;DHT22;6325;49.540;8.364;2022-07-23T15:33:04;29.10;98.40
12520;DHT22;6325;49.540;8.364;2022-07-23T15:35:32;29.50;97.30
12520;DHT22;6325;49.540;8.364;2022-07-23T15:37:59;29.10;97.10
12520;DHT22;6325;49.540;8.364;2022-07-23T15:40:26;29.30;97.50
12520;DHT22;6325;49.540;8.364;2022-07-23T15:42:53;29.10;96.90
12520;DHT22;6325;49.540;8.364;2022-07-23T15:45:20;29.10;97.40
12520;DHT22;6325;49.540;8.364;2022-07-23T15:47:46;29.00;98.20
12520;DHT22;6325;49.540;8.364;2022-07-23T15:50:13;28.80;98.50
12520;DHT22;6325;49.540;8.364;2022-07-23T15:52:42;28.90;98.90
12520;DHT22;6325;49.540;8.364;2022-07-23T15:55:09;28.90;99.60
12520;DHT22;6325;49.540;8.364;2022-07-23T15:57:36;29.30;99.90
12520;DHT22;6325;49.540;8.364;2022-07-23T16:00:04;28.90;99.90
12520;DHT22;6325;49.540;8.364;2022-07-23T16:02:31;28.70;99.70
12520;DHT22;6325;49.540;8.364;2022-07-23T16:04:58;28.80;99.80
12520;DHT22;6325;49.540;8.364;2022-07-23T16:07:25;28.40;99.10
12520;DHT22;6325;49.540;8.364;2022-07-23T16:09:53;28.70;98.90
12520;DHT22;6325;49.540;8.364;2022-07-23T16:12:20;28.60;98.90
12520;DHT22;6325;49.540;8.364;2022-07-23T16:14:47;28.80;99.90
12520;DHT22;6325;49.540;8.364;2022-07-23T16:17:14;28.60;99.90
12520;DHT22;6325;49.540;8.364;2022-07-23T16:19:41;28.60;99.90
12520;DHT22;6325;49.540;8.364;2022-07-23T16:22:07;28.00;99.90
12520;DHT22;6325;49.540;8.364;2022-07-23T16:24:36;28.80;99.90
12520;DHT22;6325;49.540;8.364;2022-07-23T16:27:04;28.30;99.90
12520;DHT22;6325;49.540;8.364;2022-07-23T16:29:31;28.90;99.90
12520;DHT22;6325;49.540;8.364;2022-07-23T16:31:58;28.60;99.90
12520;DHT22;6325;49.540;8.364;2022-07-23T16:34:25;29.00;99.20
12520;DHT22;6325;49.540;8.364;2022-07-23T16:36:51;30.20;98.40
12520;DHT22;6325;49.540;8.364;2022-07-23T16:39:18;31.60;96.00
12520;DHT22;6325;49.540;8.364;2022-07-23T16:41:45;32.30;93.50
12520;DHT22;6325;49.540;8.364;2022-07-23T16:44:13;32.90;93.00
12520;DHT22;6325;49.540;8.364;2022-07-23T16:46:40;33.40;91.60
12520;DHT22;6325;49.540;8.364;2022-07-23T16:49:09;33.30;91.00
12520;DHT22;6325;49.540;8.364;2022-07-23T16:51:36;33.10;91.90
12520;DHT22;6325;49.540;8.364;2022-07-23T16:54:03;32.80;92.30
12520;DHT22;6325;49.540;8.364;2022-07-23T16:56:30;33.20;91.80
12520;DHT22;6325;49.540;8.364;2022-07-23T16:58:58;33.30;90.90
12520;DHT22;6325;49.540;8.364;2022-07-23T17:01:26;33.50;91.00
12520;DHT22;6325;49.540;8.364;2022-07-23T17:03:53;33.60;89.20
12520;DHT22;6325;49.540;8.364;2022-07-23T17:06:20;33.90;85.80
12520;DHT22;6325;49.540;8.364;2022-07-23T17:08:47;33.80;85.10
12520;DHT22;6325;49.540;8.364;2022-07-23T17:11:13;34.00;83.30
12520;DHT22;6325;49.540;8.364;2022-07-23T17:13:40;33.90;82.60
12520;DHT22;6325;49.540;8.364;2022-07-23T17:16:07;34.20;85.50
12520;DHT22;6325;49.540;8.364;2022-07-23T17:18:36;33.80;85.80
12520;DHT22;6325;49.540;8.364;2022-07-23T17:21:02;33.80;82.50
12520;DHT22;6325;49.540;8.364;2022-07-23T17:23:29;33.20;83.30
12520;DHT22;6325;49.540;8.364;2022-07-23T17:25:56;33.50;87.30
12520;DHT22;6325;49.540;8.364;2022-07-23T17:28:23;33.20;85.50
12520;DHT22;6325;49.540;8.364;2022-07-23T17:30:50;33.10;83.50
12520;DHT22;6325;49.540;8.364;2022-07-23T17:33:17;32.50;81.50
12520;DHT22;6325;49.540;8.364;2022-07-23T17:35:45;31.70;86.30
12520;DHT22;6325;49.540;8.364;2022-07-23T17:38:12;31.50;87.70
12520;DHT22;6325;49.540;8.364;2022-07-23T17:40:39;31.50;90.60
12520;DHT22;6325;49.540;8.364;2022-07-23T17:43:06;30.90;90.20
12520;DHT22;6325;49.540;8.364;2022-07-23T17:45:33;30.70;91.90
12520;DHT22;6325;49.540;8.364;2022-07-23T17:48:00;30.30;92.20
12520;DHT22;6325;49.540;8.364;2022-07-23T17:50:27;30.00;91.60
12520;DHT22;6325;49.540;8.364;2022-07-23T17:52:56;30.10;92.20
12520;DHT22;6325;49.540;8.364;2022-07-23T17:55:24;29.90;92.80
12520;DHT22;6325;49.540;8.364;2022-07-23T17:57:52;29.70;90.90
12520;DHT22;6325;49.540;8.364;2022-07-23T18:00:21;29.00;92.00
12520;DHT22;6325;49.540;8.364;2022-07-23T18:02:49;29.40;93.30
12520;DHT22;6325;49.540;8.364;2022-07-23T18:05:16;29.40;93.00
12520;DHT22;6325;49.540;8.364;2022-07-23T18:07:43;29.10;93.80
12520;DHT22;6325;49.540;8.364;2022-07-23T18:10:12;28.70;92.50
12520;DHT22;6325;49.540;8.364;2022-07-23T18:12:39;29.10;92.50
12520;DHT22;6325;49.540;8.364;2022-07-23T18:15:06;29.00;94.50
12520;DHT22;6325;49.540;8.364;2022-07-23T18:17:34;28.80;95.40
12520;DHT22;6325;49.540;8.364;2022-07-23T18:20:00;28.80;95.40
12520;DHT22;6325;49.540;8.364;2022-07-23T18:22:27;28.80;95.90
12520;DHT22;6325;49.540;8.364;2022-07-23T18:24:54;28.60;95.70
12520;DHT22;6325;49.540;8.364;2022-07-23T18:27:22;28.40;96.80
12520;DHT22;6325;49.540;8.364;2022-07-23T18:29:49;28.40;97.10
12520;DHT22;6325;49.540;8.364;2022-07-23T18:32:17;28.20;97.20
12520;DHT22;6325;49.540;8.364;2022-07-23T18:34:44;28.30;97.60
12520;DHT22;6325;49.540;8.364;2022-07-23T18:37:11;28.60;98.70
12520;DHT22;6325;49.540;8.364;2022-07-23T18:39:38;27.80;98.80
12520;DHT22;6325;49.540;8.364;2022-07-23T18:42:06;27.90;99.30
12520;DHT22;6325;49.540;8.364;2022-07-23T18:44:35;27.40;99.80
12520;DHT22;6325;49.540;8.364;2022-07-23T18:47:03;27.70;99.50
12520;DHT22;6325;49.540;8.364;2022-07-23T18:49:30;27.20;99.40
12520;DHT22;6325;49.540;8.364;2022-07-23T18:51:57;27.50;98.90
12520;DHT22;6325;49.540;8.364;2022-07-23T18:54:24;27.40;99.70
12520;DHT22;6325;49.540;8.364;2022-07-23T18:56:51;27.20;99.90
12520;DHT22;6325;49.540;8.364;2022-07-23T18:59:18;27.30;99.90
12520;DHT22;6325;49.540;8.364;2022-07-23T19:01:46;27.10;99.90
12520;DHT22;6325;49.540;8.364;2022-07-23T19:04:13;27.20;99.90
